createdAt,value
2022-07-28T00:00:34.060Z,62402.38
2022-07-28T00:03:01.102Z,62402.38
2022-07-28T00:05:29.685Z,62402.38
2022-07-28T00:07:58.064Z,62402.38
2022-07-28T00:10:25.103Z,62402.38
2022-07-28T00:12:52.014Z,97998.66
2022-07-28T00:15:19.031Z,98003.16
2022-07-28T00:17:45.960Z,97997.09
2022-07-28T00:20:12.970Z,98004.25
2022-07-28T00:22:43.868Z,97996.69
2022-07-28T00:25:11.574Z,97995.47
2022-07-28T00:27:38.566Z,97989.16
2022-07-28T00:30:06.596Z,97989.00
2022-07-28T00:32:33.707Z,97986.06
2022-07-28T00:35:00.757Z,62402.38
2022-07-28T00:37:29.330Z,62402.38
2022-07-28T00:39:58.129Z,62402.38
2022-07-28T00:42:25.092Z,62402.38
2022-07-28T00:44:52.016Z,62402.38
2022-07-28T00:47:20.276Z,62402.38
2022-07-28T00:49:48.427Z,62402.38
2022-07-28T00:52:17.809Z,62402.38
2022-07-28T00:54:44.838Z,62402.38
2022-07-28T00:57:13.154Z,62402.38
2022-07-28T00:59:40.159Z,62402.38
2022-07-28T01:02:07.829Z,62402.38
2022-07-28T01:04:35.089Z,97986.06
2022-07-28T01:07:11.665Z,62402.38
2022-07-28T01:09:48.461Z,62402.38
2022-07-28T01:12:27.116Z,62402.38
2022-07-28T01:15:01.857Z,62402.38
2022-07-28T01:17:36.086Z,62402.38
2022-07-28T01:20:09.442Z,62402.38
2022-07-28T01:22:42.043Z,62402.38
2022-07-28T01:25:21.616Z,62402.38
2022-07-28T01:28:04.437Z,62402.38
2022-07-28T01:30:39.496Z,62402.38
2022-07-28T01:33:15.359Z,62402.38
2022-07-28T01:35:45.685Z,97966.75
2022-07-28T01:38:14.466Z,97963.19
2022-07-28T01:40:45.552Z,97955.31
2022-07-28T01:43:20.925Z,97955.69
2022-07-28T01:45:49.273Z,97951.66
2022-07-28T01:48:19.105Z,97954.53
2022-07-28T01:50:48.859Z,97953.38
2022-07-28T01:53:17.250Z,97955.31
2022-07-28T01:55:45.745Z,97951.19
2022-07-28T01:58:13.652Z,97956.94
2022-07-28T02:00:43.000Z,97949.69
2022-07-28T02:03:13.120Z,97949.44
2022-07-28T02:05:42.891Z,97950.09
2022-07-28T02:08:11.539Z,97937.78
2022-07-28T02:10:42.166Z,97933.59
2022-07-28T02:13:10.411Z,97937.19
2022-07-28T02:15:39.343Z,97930.16
2022-07-28T02:18:07.632Z,97938.16
2022-07-28T02:20:37.191Z,97937.13
2022-07-28T02:23:04.957Z,97932.44
2022-07-28T02:25:33.140Z,97926.09
2022-07-28T02:28:04.245Z,97924.72
2022-07-28T02:30:34.593Z,97926.78
2022-07-28T02:33:08.254Z,97926.81
2022-07-28T02:35:45.017Z,97929.09
2022-07-28T02:38:15.105Z,97922.00
2022-07-28T02:40:44.467Z,97914.44
2022-07-28T02:43:15.066Z,97922.00
2022-07-28T02:45:43.843Z,97910.94
2022-07-28T02:48:13.537Z,97908.28
2022-07-28T02:50:44.869Z,97908.50
2022-07-28T02:53:16.150Z,97907.91
2022-07-28T02:55:46.368Z,97903.66
2022-07-28T02:58:15.458Z,97911.31
2022-07-28T03:00:43.170Z,97901.00
2022-07-28T03:03:10.859Z,97898.88
2022-07-28T03:05:40.000Z,97897.03
2022-07-28T03:08:09.105Z,97893.22
2022-07-28T03:10:36.035Z,97892.50
2022-07-28T03:13:06.765Z,97894.91
2022-07-28T03:15:34.687Z,97889.25
2022-07-28T03:18:02.228Z,97898.31
2022-07-28T03:20:30.405Z,97888.22
2022-07-28T03:22:58.471Z,97890.44
2022-07-28T03:25:32.646Z,97891.13
2022-07-28T03:28:01.086Z,97891.13
2022-07-28T03:30:33.132Z,97898.06
2022-07-28T03:33:02.725Z,97896.78
2022-07-28T03:35:32.803Z,97901.34
2022-07-28T03:38:05.722Z,97891.03
2022-07-28T03:40:35.505Z,97904.28
2022-07-28T03:43:08.155Z,97904.00
2022-07-28T03:45:35.745Z,97902.34
2022-07-28T03:48:03.283Z,97906.38
2022-07-28T03:50:31.901Z,97902.28
2022-07-28T03:52:59.972Z,97901.25
2022-07-28T03:55:27.430Z,97902.63
2022-07-28T03:57:57.245Z,97905.13
2022-07-28T04:00:25.846Z,62402.38
2022-07-28T04:02:53.041Z,62402.38
2022-07-28T04:05:20.576Z,62402.38
2022-07-28T04:07:48.029Z,62402.38
2022-07-28T04:10:16.723Z,62402.38
2022-07-28T04:12:49.186Z,62402.38
2022-07-28T04:15:18.717Z,62402.38
2022-07-28T04:17:48.626Z,62402.38
2022-07-28T04:20:16.958Z,62402.38
2022-07-28T04:22:44.259Z,62402.38
2022-07-28T04:25:14.429Z,62402.38
2022-07-28T04:27:42.197Z,62402.38
2022-07-28T04:30:13.317Z,62402.38
2022-07-28T04:32:41.602Z,62402.38
2022-07-28T04:35:12.949Z,97911.72
2022-07-28T04:37:42.611Z,97903.47
2022-07-28T04:40:11.503Z,97906.84
2022-07-28T04:42:39.738Z,97901.53
2022-07-28T04:45:08.477Z,97904.41
2022-07-28T04:47:35.605Z,97905.41
2022-07-28T04:50:04.554Z,97904.81
2022-07-28T04:52:31.549Z,97908.47
2022-07-28T04:54:58.449Z,97904.50
2022-07-28T04:57:28.105Z,97910.84
2022-07-28T04:59:56.758Z,97907.56
2022-07-28T05:02:24.741Z,97914.41
2022-07-28T05:04:51.706Z,97903.97
2022-07-28T05:07:20.387Z,97907.41
2022-07-28T05:09:47.332Z,97907.31
2022-07-28T05:12:14.249Z,97898.28
2022-07-28T05:14:41.222Z,97898.09
2022-07-28T05:17:08.188Z,97903.81
2022-07-28T05:19:36.899Z,97898.31
2022-07-28T05:22:03.836Z,97906.03
2022-07-28T05:24:32.201Z,97902.94
2022-07-28T05:26:59.108Z,97899.72
2022-07-28T05:29:26.155Z,97903.88
2022-07-28T05:32:16.329Z,97899.53
2022-07-28T05:34:44.565Z,97896.31
2022-07-28T05:37:12.239Z,97894.66
2022-07-28T05:39:40.729Z,97897.38
2022-07-28T05:42:07.962Z,97900.41
2022-07-28T05:44:38.316Z,97905.34
2022-07-28T05:47:06.235Z,97901.38
2022-07-28T05:49:33.726Z,97896.19
2022-07-28T05:52:00.661Z,97896.19
2022-07-28T05:54:28.225Z,97894.38
2022-07-28T05:56:56.565Z,97898.91
2022-07-28T05:59:23.471Z,97902.59
2022-07-28T06:01:50.534Z,97898.66
2022-07-28T06:04:26.874Z,97902.81
2022-07-28T06:06:55.463Z,97902.84
2022-07-28T06:09:22.420Z,97900.41
2022-07-28T06:11:50.794Z,97899.50
2022-07-28T06:14:19.541Z,97900.97
2022-07-28T06:16:51.266Z,97906.41
2022-07-28T06:19:18.560Z,97899.59
2022-07-28T06:21:45.549Z,97907.69
2022-07-28T06:24:12.741Z,97891.84
2022-07-28T06:26:44.642Z,97897.88
2022-07-28T06:29:12.508Z,97898.81
2022-07-28T06:31:41.386Z,97901.59
2022-07-28T06:34:08.368Z,97902.50
2022-07-28T06:36:35.348Z,97906.72
2022-07-28T06:39:02.471Z,97904.59
2022-07-28T06:41:29.656Z,97900.03
2022-07-28T06:43:56.662Z,97896.88
2022-07-28T06:46:23.692Z,62402.38
2022-07-28T06:48:52.312Z,62402.38
2022-07-28T06:53:48.737Z,97905.59
2022-07-28T06:56:16.947Z,97903.06
2022-07-28T06:58:58.937Z,97901.13
2022-07-28T07:01:26.208Z,97894.50
2022-07-28T07:03:54.846Z,97902.41
2022-07-28T07:06:21.994Z,97903.06
2022-07-28T07:08:49.322Z,97899.22
2022-07-28T07:11:16.424Z,97903.22
2022-07-28T07:13:43.547Z,97893.41
2022-07-28T07:16:10.791Z,97892.13
2022-07-28T07:18:38.052Z,97883.78
2022-07-28T07:21:06.617Z,97877.34
2022-07-28T07:23:35.522Z,97883.25
2022-07-28T07:26:02.587Z,62402.38
2022-07-28T07:28:29.818Z,62402.38
2022-07-28T07:30:56.970Z,97879.06
2022-07-28T07:33:23.821Z,97881.44
2022-07-28T07:35:51.221Z,97878.81
2022-07-28T07:38:19.627Z,97880.63
2022-07-28T07:40:46.688Z,97875.41
2022-07-28T07:43:13.659Z,97873.53
2022-07-28T07:45:42.204Z,97879.56
2022-07-28T07:48:09.235Z,97870.81
2022-07-28T07:50:37.377Z,97872.91
2022-07-28T07:53:04.717Z,97869.91
2022-07-28T07:55:36.247Z,97870.50
2022-07-28T07:58:05.502Z,97874.66
2022-07-28T08:00:32.768Z,97883.09
2022-07-28T08:03:01.211Z,97871.06
2022-07-28T08:05:34.927Z,97868.63
2022-07-28T08:08:05.025Z,97856.81
2022-07-28T08:10:33.869Z,97857.81
2022-07-28T08:13:02.129Z,97855.28
2022-07-28T08:15:29.618Z,97850.94
2022-07-28T08:17:56.686Z,97856.56
2022-07-28T08:20:24.111Z,97859.41
2022-07-28T08:22:52.989Z,97863.50
2022-07-28T08:25:21.028Z,97863.44
2022-07-28T08:27:49.989Z,97864.00
2022-07-28T08:30:23.189Z,97855.53
2022-07-28T08:32:56.838Z,97850.81
2022-07-28T08:35:34.093Z,97850.53
2022-07-28T08:38:01.807Z,97848.59
2022-07-28T08:40:30.343Z,97847.00
2022-07-28T08:43:04.489Z,97847.63
2022-07-28T08:45:33.238Z,97850.09
2022-07-28T08:48:08.622Z,97851.88
2022-07-28T08:50:37.728Z,97850.84
2022-07-28T08:53:07.049Z,97848.88
2022-07-28T08:55:37.854Z,97852.56
2022-07-28T08:58:07.977Z,97853.53
2022-07-28T09:00:36.971Z,97848.81
2022-07-28T09:03:06.574Z,97850.63
2022-07-28T09:05:34.663Z,97839.91
2022-07-28T09:08:03.099Z,97846.34
2022-07-28T09:10:30.385Z,97846.19
2022-07-28T09:12:57.423Z,97848.63
2022-07-28T09:15:26.043Z,97852.16
2022-07-28T09:17:53.523Z,97841.56
2022-07-28T09:20:20.647Z,97854.22
2022-07-28T09:22:58.975Z,97847.72
2022-07-28T09:25:27.028Z,97842.88
2022-07-28T09:27:55.081Z,97839.97
2022-07-28T09:30:31.469Z,97841.72
2022-07-28T09:33:42.202Z,97832.16
2022-07-28T09:36:14.471Z,97832.91
2022-07-28T09:38:41.903Z,97841.72
2022-07-28T09:41:09.154Z,97841.00
2022-07-28T09:43:38.009Z,97830.44
2022-07-28T09:46:08.289Z,97832.13
2022-07-28T09:48:37.149Z,97831.56
2022-07-28T09:51:13.353Z,97823.56
2022-07-28T09:53:40.761Z,97823.41
2022-07-28T09:56:08.258Z,97831.53
2022-07-28T09:58:35.668Z,97823.88
2022-07-28T10:01:10.187Z,97815.88
2022-07-28T10:03:40.283Z,97819.81
2022-07-28T10:06:11.665Z,97820.78
2022-07-28T10:08:48.700Z,97812.53
2022-07-28T10:11:18.281Z,97818.72
2022-07-28T10:13:58.087Z,97817.53
2022-07-28T10:16:28.769Z,97809.25
2022-07-28T10:18:57.686Z,97808.13
2022-07-28T10:21:26.418Z,97804.41
2022-07-28T10:23:55.768Z,97809.50
2022-07-28T10:26:29.503Z,97807.28
2022-07-28T10:28:57.469Z,97807.63
2022-07-28T10:31:38.795Z,97793.47
2022-07-28T10:34:14.263Z,97793.22
2022-07-28T10:36:44.832Z,97789.78
2022-07-28T10:39:14.274Z,97791.22
2022-07-28T10:41:42.796Z,97786.00
2022-07-28T10:44:14.790Z,97785.28
2022-07-28T10:46:44.080Z,97783.97
2022-07-28T10:49:12.974Z,97776.91
2022-07-28T10:52:01.128Z,97780.94
2022-07-28T10:54:30.969Z,97774.56
2022-07-28T10:57:00.702Z,97781.34
2022-07-28T11:00:05.232Z,97783.78
2022-07-28T11:02:51.406Z,97773.84
2022-07-28T11:05:36.874Z,97781.88
2022-07-28T11:08:06.878Z,97765.63
2022-07-28T11:10:45.432Z,97767.97
2022-07-28T11:13:28.753Z,97766.81
2022-07-28T11:15:57.372Z,97769.97
2022-07-28T11:18:26.687Z,97764.44
2022-07-28T11:21:10.110Z,97761.94
2022-07-28T11:23:55.255Z,97761.19
2022-07-28T11:26:36.136Z,97753.19
2022-07-28T11:29:19.664Z,97770.53
2022-07-28T11:31:56.477Z,97755.59
2022-07-28T11:34:25.911Z,97756.69
2022-07-28T11:37:02.713Z,97754.81
2022-07-28T11:39:31.784Z,97749.53
2022-07-28T11:42:29.745Z,97745.94
2022-07-28T11:45:26.630Z,97740.22
2022-07-28T11:48:14.992Z,97735.81
2022-07-28T11:51:05.361Z,97738.88
2022-07-28T11:53:33.560Z,97747.75
2022-07-28T11:56:03.218Z,97732.75
2022-07-28T11:58:30.466Z,97735.63
2022-07-28T12:01:13.369Z,97727.94
2022-07-28T12:03:50.260Z,97732.72
2022-07-28T12:06:26.203Z,97735.91
2022-07-28T12:08:58.842Z,97724.34
2022-07-28T12:11:27.188Z,97724.38
2022-07-28T12:13:59.854Z,97726.75
2022-07-28T12:16:27.729Z,97717.66
2022-07-28T12:18:55.935Z,97726.75
2022-07-28T12:21:37.459Z,97728.50
2022-07-28T12:24:16.540Z,97717.06
2022-07-28T12:26:49.548Z,97716.03
2022-07-28T12:29:20.416Z,97709.69
2022-07-28T12:31:56.052Z,97712.13
2022-07-28T12:34:28.811Z,97716.47
2022-07-28T12:36:59.821Z,97711.28
2022-07-28T12:39:26.928Z,97713.69
2022-07-28T12:42:03.548Z,97704.94
2022-07-28T12:44:38.306Z,97706.53
2022-07-28T12:47:08.185Z,97708.84
2022-07-28T12:49:36.734Z,97706.53
2022-07-28T12:52:22.128Z,97710.91
2022-07-28T12:54:54.778Z,97694.66
2022-07-28T12:57:48.038Z,97699.03
2022-07-28T13:00:19.918Z,97700.97
2022-07-28T13:02:50.043Z,97695.03
2022-07-28T13:05:55.696Z,97692.28
2022-07-28T13:08:27.701Z,97692.69
2022-07-28T13:10:58.962Z,97696.22
2022-07-28T13:13:26.914Z,97692.97
2022-07-28T13:16:13.962Z,97697.34
2022-07-28T13:18:42.037Z,97695.03
2022-07-28T13:21:09.285Z,97693.88
2022-07-28T13:23:38.622Z,97690.28
2022-07-28T13:26:07.740Z,97693.09
2022-07-28T13:28:35.384Z,97686.75
2022-07-28T13:31:02.605Z,97684.72
2022-07-28T13:33:30.015Z,97691.81
2022-07-28T13:35:58.926Z,97691.50
2022-07-28T13:38:26.297Z,97683.19
2022-07-28T13:40:54.816Z,97680.69
2022-07-28T13:43:21.856Z,97681.00
2022-07-28T13:45:48.866Z,97669.88
2022-07-28T13:48:16.042Z,97671.94
2022-07-28T13:50:43.045Z,97677.47
2022-07-28T13:53:34.250Z,97676.66
2022-07-28T13:56:02.698Z,97673.09
2022-07-28T13:58:29.764Z,97668.03
2022-07-28T14:00:57.583Z,97666.78
2022-07-28T14:03:25.209Z,97667.97
2022-07-28T14:05:52.778Z,97676.22
2022-07-28T14:08:20.009Z,97673.25
2022-07-28T14:10:48.306Z,97665.47
2022-07-28T14:13:17.128Z,97661.91
2022-07-28T14:15:46.606Z,97664.00
2022-07-28T14:18:14.050Z,97653.31
2022-07-28T14:20:41.238Z,97658.84
2022-07-28T14:23:08.298Z,97650.13
2022-07-28T14:25:48.798Z,97663.97
2022-07-28T14:28:18.629Z,97656.78
2022-07-28T14:30:45.852Z,97655.63
2022-07-28T14:33:14.071Z,97658.91
2022-07-28T14:35:41.551Z,97659.59
2022-07-28T14:40:59.593Z,97641.94
2022-07-28T14:43:28.002Z,97650.69
2022-07-28T14:46:14.582Z,97656.38
2022-07-28T14:48:43.688Z,97651.78
2022-07-28T14:51:11.583Z,97634.88
2022-07-28T14:53:40.058Z,97631.63
2022-07-28T14:56:13.876Z,97632.22
2022-07-28T14:58:44.288Z,97647.25
2022-07-28T15:01:11.506Z,97633.34
2022-07-28T15:03:43.573Z,97642.75
2022-07-28T15:06:10.940Z,97639.59
2022-07-28T15:08:38.018Z,97648.47
2022-07-28T15:11:05.133Z,97641.25
2022-07-28T15:13:32.243Z,97640.59
2022-07-28T15:16:00.737Z,97634.38
2022-07-28T15:18:28.071Z,97629.63
2022-07-28T15:20:56.378Z,97631.94
2022-07-28T15:23:24.480Z,97627.63
2022-07-28T15:25:53.085Z,97625.97
2022-07-28T15:28:20.104Z,97630.81
2022-07-28T15:30:52.959Z,97628.84
2022-07-28T15:33:21.821Z,97631.97
2022-07-28T15:35:58.113Z,97630.78
2022-07-28T15:38:27.577Z,97625.69
2022-07-28T15:40:54.900Z,97618.97
2022-07-28T15:43:23.743Z,97629.66
2022-07-28T15:45:55.239Z,97628.38
2022-07-28T15:48:27.761Z,97624.06
2022-07-28T15:50:54.831Z,97626.50
2022-07-28T15:53:21.868Z,97623.72
2022-07-28T15:55:51.297Z,97625.72
2022-07-28T15:58:19.004Z,97625.72
2022-07-28T16:00:47.045Z,97621.34
2022-07-28T16:03:15.798Z,97615.81
2022-07-28T16:05:48.826Z,97615.78
2022-07-28T16:08:16.110Z,97616.16
2022-07-28T16:10:43.267Z,97609.91
2022-07-28T16:13:10.290Z,97611.44
2022-07-28T16:15:37.511Z,97603.53
2022-07-28T16:18:04.628Z,97600.38
2022-07-28T16:20:32.381Z,97598.00
2022-07-28T16:23:00.952Z,97595.63
2022-07-28T16:25:28.238Z,97584.50
2022-07-28T16:27:55.699Z,97596.34
2022-07-28T16:30:22.910Z,97591.59
2022-07-28T16:32:49.983Z,97589.19
2022-07-28T16:35:17.201Z,97588.00
2022-07-28T16:37:44.451Z,97586.44
2022-07-28T16:40:13.626Z,97585.25
2022-07-28T16:42:40.856Z,97585.22
2022-07-28T16:45:09.793Z,97578.09
2022-07-28T16:47:36.966Z,97579.28
2022-07-28T16:50:04.841Z,97574.44
2022-07-28T16:52:35.534Z,97575.94
2022-07-28T16:55:02.783Z,97579.06
2022-07-28T16:57:31.420Z,97576.31
2022-07-28T16:59:58.626Z,97583.81
2022-07-28T17:02:25.815Z,97578.69
2022-07-28T17:04:53.139Z,97583.44
2022-07-28T17:07:20.506Z,97579.84
2022-07-28T17:09:47.837Z,97579.41
2022-07-28T17:12:15.130Z,97582.56
2022-07-28T17:14:43.996Z,97584.94
2022-07-28T17:17:11.419Z,97580.19
2022-07-28T17:19:43.378Z,97573.88
2022-07-28T17:22:14.856Z,97576.31
2022-07-28T17:24:42.263Z,97579.09
2022-07-28T17:29:58.657Z,97571.22
2022-07-28T17:32:25.989Z,97574.81
2022-07-28T17:34:55.011Z,97572.41
2022-07-28T17:37:22.268Z,97568.41
2022-07-28T17:39:49.697Z,97572.31
2022-07-28T17:42:17.039Z,97580.16
2022-07-28T17:44:44.382Z,97577.78
2022-07-28T17:47:13.168Z,97576.84
2022-07-28T17:49:45.196Z,97581.16
2022-07-28T17:52:12.884Z,97575.19
2022-07-28T17:54:58.680Z,97577.50
2022-07-28T17:57:35.075Z,97577.03
2022-07-28T18:00:06.940Z,97582.16
2022-07-28T18:02:37.642Z,97578.59
2022-07-28T18:05:04.976Z,97572.31
2022-07-28T18:07:50.508Z,97577.75
2022-07-28T18:10:24.976Z,97585.19
2022-07-28T18:12:55.854Z,97585.19
2022-07-28T18:15:23.856Z,97583.47
2022-07-28T18:17:55.450Z,97575.78
2022-07-28T18:20:24.893Z,97581.97
2022-07-28T18:22:52.595Z,97582.25
2022-07-28T18:25:20.840Z,97587.59
2022-07-28T18:27:48.136Z,97585.22
2022-07-28T18:30:16.386Z,97588.66
2022-07-28T18:32:43.756Z,97594.00
2022-07-28T18:35:12.838Z,97588.81
2022-07-28T18:37:45.530Z,97587.94
2022-07-28T18:40:14.647Z,97595.00
2022-07-28T18:42:41.944Z,97605.16
2022-07-28T18:45:10.213Z,97598.72
2022-07-28T18:47:47.866Z,97611.63
2022-07-28T18:50:30.272Z,97615.00
2022-07-28T18:52:59.510Z,97607.88
2022-07-28T18:55:26.894Z,97604.59
2022-07-28T18:57:53.966Z,97605.19
2022-07-28T19:00:21.550Z,97610.38
2022-07-28T19:02:48.788Z,97602.81
2022-07-28T19:05:17.559Z,97603.78
2022-07-28T19:07:44.822Z,97605.59
2022-07-28T19:10:12.486Z,97613.34
2022-07-28T19:12:39.515Z,97615.19
2022-07-28T19:15:07.855Z,97611.03
2022-07-28T19:17:35.229Z,97620.75
2022-07-28T19:20:02.433Z,97619.38
2022-07-28T19:22:31.174Z,97625.50
2022-07-28T19:24:58.382Z,97619.75
2022-07-28T19:27:25.706Z,97620.41
2022-07-28T19:29:57.918Z,97620.72
2022-07-28T19:32:25.617Z,97622.94
2022-07-28T19:34:53.402Z,97620.50
2022-07-28T19:37:23.274Z,97626.28
2022-07-28T19:39:52.104Z,97623.41
2022-07-28T19:42:19.420Z,97627.16
2022-07-28T19:44:47.913Z,97627.44
2022-07-28T19:47:16.357Z,97633.81
2022-07-28T19:49:46.752Z,97640.31
2022-07-28T19:52:15.969Z,97640.50
2022-07-28T19:54:51.358Z,97643.09
2022-07-28T19:57:22.498Z,97640.97
2022-07-28T19:59:50.867Z,97642.84
2022-07-28T20:02:18.080Z,97649.03
2022-07-28T20:04:46.215Z,97637.81
2022-07-28T20:07:13.860Z,97640.91
2022-07-28T20:09:41.217Z,97641.50
2022-07-28T20:12:09.020Z,97644.63
2022-07-28T20:14:39.595Z,97642.59
2022-07-28T20:17:08.192Z,97639.94
2022-07-28T20:19:35.230Z,97635.50
2022-07-28T20:22:02.292Z,97641.19
2022-07-28T20:24:31.093Z,97636.50
2022-07-28T20:26:58.543Z,62402.38
2022-07-28T20:29:26.505Z,97636.50
2022-07-28T20:31:55.027Z,97643.31
2022-07-28T20:34:22.760Z,97646.16
2022-07-28T20:36:50.456Z,97653.69
2022-07-28T20:39:43.377Z,97655.72
2022-07-28T20:42:08.257Z,97653.59
2022-07-28T20:44:36.021Z,97665.72
2022-07-28T20:47:04.912Z,97670.34
2022-07-28T20:49:32.835Z,97676.00
2022-07-28T20:52:00.025Z,97674.13
2022-07-28T20:54:27.104Z,97667.75
2022-07-28T20:56:54.268Z,97679.16
2022-07-28T20:59:27.209Z,97676.84
2022-07-28T21:01:55.076Z,97681.44
2022-07-28T21:04:24.553Z,97681.94
2022-07-28T21:06:55.354Z,97686.97
2022-07-28T21:09:28.126Z,97694.22
2022-07-28T21:11:55.641Z,97700.59
2022-07-28T21:14:22.683Z,97696.13
2022-07-28T21:16:49.849Z,97701.78
2022-07-28T21:19:17.065Z,97699.59
2022-07-28T21:21:45.507Z,97702.56
2022-07-28T21:24:13.355Z,97704.31
2022-07-28T21:26:41.702Z,97702.16
2022-07-28T21:29:12.593Z,97706.41
2022-07-28T21:32:03.733Z,97710.78
2022-07-28T21:34:28.916Z,97707.81
2022-07-28T21:36:57.859Z,97711.59
2022-07-28T21:39:25.430Z,97708.41
2022-07-28T21:41:52.463Z,97717.91
2022-07-28T21:44:19.519Z,97722.59
2022-07-28T21:46:46.450Z,97714.78
2022-07-28T21:49:13.523Z,97724.88
2022-07-28T21:51:41.234Z,97726.00
2022-07-28T21:54:09.610Z,97719.16
2022-07-28T21:56:36.581Z,97723.03
2022-07-28T21:59:04.451Z,97728.84
2022-07-28T22:01:31.610Z,97727.59
2022-07-28T22:03:58.782Z,97718.69
2022-07-28T22:06:26.141Z,97715.94
2022-07-28T22:08:56.620Z,97722.31
2022-07-28T22:11:24.994Z,97719.34
2022-07-28T22:13:52.190Z,97718.34
2022-07-28T22:16:19.363Z,62402.38
2022-07-28T22:18:46.717Z,62402.38
2022-07-28T22:21:13.712Z,62402.38
2022-07-28T22:23:41.476Z,62402.38
2022-07-28T22:26:08.544Z,62402.38
2022-07-28T22:28:36.938Z,62402.38
2022-07-28T22:31:09.596Z,62402.38
2022-07-28T22:33:37.397Z,62402.38
2022-07-28T22:36:05.063Z,97718.34
2022-07-28T22:38:32.375Z,97721.47
2022-07-28T22:40:59.374Z,97722.03
2022-07-28T22:43:26.356Z,97727.09
2022-07-28T22:45:54.713Z,97732.09
2022-07-28T22:48:21.661Z,97730.00
2022-07-28T22:50:48.682Z,97727.28
2022-07-28T22:53:15.811Z,97722.75
2022-07-28T22:55:42.759Z,97726.63
2022-07-28T22:58:09.902Z,97723.63
2022-07-28T23:00:37.079Z,97721.00
2022-07-28T23:03:05.654Z,97718.91
2022-07-28T23:05:34.186Z,97711.84
2022-07-28T23:08:01.166Z,97705.94
2022-07-28T23:10:29.892Z,97704.88
2022-07-28T23:12:58.690Z,97716.53
2022-07-28T23:15:40.052Z,97707.63
2022-07-28T23:18:14.174Z,97707.19
2022-07-28T23:20:42.085Z,97707.72
2022-07-28T23:23:09.721Z,97708.53
2022-07-28T23:25:39.605Z,97709.16
2022-07-28T23:28:06.857Z,97705.44
2022-07-28T23:30:33.818Z,97708.81
2022-07-28T23:33:00.747Z,97703.50
2022-07-28T23:35:29.096Z,97714.13
2022-07-28T23:37:56.077Z,97719.50
2022-07-28T23:40:23.074Z,97724.63
2022-07-28T23:42:50.034Z,97724.63
2022-07-28T23:45:17.067Z,97756.25
2022-07-28T23:47:44.001Z,97756.25
2022-07-28T23:50:10.946Z,97751.75
2022-07-28T23:52:39.248Z,97766.88
2022-07-28T23:55:07.309Z,97752.41
2022-07-28T23:57:34.291Z,97747.00
